Time;durP1;ratioP1;P1;durP2;ratioP2;P2;SDS_P1;SDS_P2;PMS_P1;PMS_P2;Temp;Humidity;BMP_temperature;BMP_pressure;BME280_temperature;BME280_humidity;BME280_pressure;Samples;Min_cycle;Max_cycle;Signal;HPM_P1;HPM_P2
2021/09/02 00:00:49;;;;;;;0.10;0.10;;;;;;;17.87;54.29;98646.50;6304667;22;20555;-57
2021/09/02 00:03:15;;;;;;;0.28;0.28;;;;;;;17.83;54.17;98636.41;6304385;22;20030;-56
2021/09/02 00:05:42;;;;;;;0.30;0.30;;;;;;;17.84;53.99;98643.34;6304737;22;20048;-55
2021/09/02 00:08:08;;;;;;;0.20;0.20;;;;;;;17.86;54.15;98654.59;6304748;22;20019;-54
2021/09/02 00:10:34;;;;;;;0.10;0.10;;;;;;;17.88;53.98;98650.78;6277068;22;20026;-57
2021/09/02 00:13:00;;;;;;;0.15;0.15;;;;;;;17.87;54.23;98646.50;6304771;22;20043;-55
2021/09/02 00:15:26;;;;;;;0.10;0.10;;;;;;;17.86;54.04;98647.50;6304119;22;20023;-56
2021/09/02 00:17:52;;;;;;;0.10;0.10;;;;;;;17.82;54.19;98648.78;6277720;22;20042;-54
2021/09/02 00:20:18;;;;;;;0.15;0.15;;;;;;;17.76;54.27;98630.13;6304497;22;20019;-52
2021/09/02 00:22:44;;;;;;;0.10;0.10;;;;;;;17.82;54.23;98646.16;6304339;22;20485;-55
2021/09/02 00:25:10;;;;;;;0.70;0.70;;;;;;;17.79;54.09;98637.72;6304640;22;20437;-55
2021/09/02 00:27:36;;;;;;;0.15;0.15;;;;;;;17.84;54.21;98643.34;6304277;22;20454;-58
2021/09/02 00:30:05;;;;;;;0.30;0.30;;;;;;;17.80;54.27;98647.31;6304423;22;20090;-56
2021/09/02 00:32:31;;;;;;;0.20;0.20;;;;;;;17.70;55.01;98637.69;6304237;22;20057;-56
2021/09/02 00:35:05;;;;;;;0.20;0.20;;;;;;;17.75;55.08;98636.38;6304699;22;20023;-56
2021/09/02 00:37:31;;;;;;;0.13;0.13;;;;;;;17.69;55.35;98641.31;6304363;22;20018;-55
2021/09/02 00:39:57;;;;;;;0.20;0.20;;;;;;;17.64;55.56;98654.16;6304541;22;20587;-53
2021/09/02 00:42:23;;;;;;;0.10;0.10;;;;;;;17.63;55.45;98652.53;6304537;22;20022;-55
2021/09/02 00:44:49;;;;;;;0.20;0.20;;;;;;;17.58;55.29;98644.22;6304324;22;20015;-56
2021/09/02 00:47:15;;;;;;;0.10;0.10;;;;;;;17.56;55.63;98646.22;6304421;22;20015;-54
2021/09/02 00:49:41;;;;;;;0.10;0.10;;;;;;;17.67;55.28;98653.00;6277293;22;20019;-55
2021/09/02 00:52:12;;;;;;;0.10;0.10;;;;;;;17.69;54.85;98646.59;6304341;22;20034;-57
2021/09/02 00:54:39;;;;;;;0.20;0.20;;;;;;;17.75;54.93;98657.50;6304009;22;20022;-57
2021/09/02 00:57:08;;;;;;;0.20;0.20;;;;;;;17.83;54.31;98641.69;6276856;22;20426;-57
2021/09/02 00:59:34;;;;;;;0.25;0.25;;;;;;;17.74;53.34;98642.63;6303849;22;20027;-55
2021/09/02 01:02:00;;;;;;;0.20;0.20;;;;;;;17.66;53.72;98643.44;6303513;22;20011;-55
2021/09/02 01:04:26;;;;;;;0.10;0.10;;;;;;;17.54;53.49;98639.38;6303271;22;20036;-56
2021/09/02 01:06:51;;;;;;;0.20;0.20;;;;;;;17.49;53.61;98637.22;6304222;22;20018;-53
2021/09/02 01:09:18;;;;;;;0.20;0.20;;;;;;;17.60;53.69;98646.72;6304286;22;20094;-57
2021/09/02 01:11:44;;;;;;;0.20;0.20;;;;;;;17.62;53.54;98650.84;6304002;22;20469;-55
2021/09/02 01:14:17;;;;;;;0.20;0.20;;;;;;;17.48;53.45;98646.13;6304091;22;20015;-54
2021/09/02 01:16:47;;;;;;;0.10;0.10;;;;;;;17.40;53.87;98651.38;6276874;22;20023;-57
2021/09/02 01:19:19;;;;;;;0.17;0.17;;;;;;;17.28;53.90;98652.59;6277196;22;20097;-57
2021/09/02 01:21:46;;;;;;;0.20;0.20;;;;;;;17.21;54.17;98648.97;6304060;22;20016;-58
2021/09/02 01:24:12;;;;;;;0.10;0.10;;;;;;;17.24;54.22;98656.56;6304254;22;20064;-55
2021/09/02 01:26:38;;;;;;;0.10;0.10;;;;;;;17.24;53.82;98659.19;6303765;22;20023;-54
2021/09/02 01:29:04;;;;;;;0.20;0.20;;;;;;;17.22;53.75;98658.50;6303967;22;20106;-55
2021/09/02 01:31:30;;;;;;;0.10;0.10;;;;;;;17.25;53.34;98663.47;6250759;22;20344;-53
2021/09/02 01:33:55;;;;;;;0.20;0.20;;;;;;;17.23;53.14;98660.16;6304034;22;20026;-55
2021/09/02 01:36:21;;;;;;;0.13;0.13;;;;;;;17.24;53.43;98667.09;6303609;22;20019;-55
2021/09/02 01:38:47;;;;;;;0.10;0.10;;;;;;;17.28;53.12;98657.88;6303762;22;20114;-57
2021/09/02 01:41:13;;;;;;;0.10;0.10;;;;;;;17.27;53.07;98656.25;6303852;22;20010;-54
2021/09/02 01:43:39;;;;;;;0.40;0.40;;;;;;;17.26;52.88;98662.50;6303584;22;20019;-55
2021/09/02 01:46:05;;;;;;;0.10;0.10;;;;;;;17.19;53.11;98664.94;6303606;22;20018;-58
2021/09/02 01:48:35;;;;;;;0.30;0.30;;;;;;;17.32;53.06;98672.41;6303634;22;20015;-57
2021/09/02 01:51:01;;;;;;;0.10;0.10;;;;;;;17.27;52.22;98672.06;6303873;22;20503;-56
2021/09/02 01:53:27;;;;;;;0.10;0.10;;;;;;;17.24;52.61;98677.66;6303920;22;20019;-55
2021/09/02 01:55:53;;;;;;;0.10;0.10;;;;;;;17.26;52.99;98680.13;6303406;22;20359;-56
2021/09/02 01:58:19;;;;;;;0.10;0.10;;;;;;;17.09;52.74;98660.72;6276494;22;20019;-55
2021/09/02 02:00:45;;;;;;;0.38;0.38;;;;;;;17.28;52.55;98680.78;6275877;22;20019;-57
2021/09/02 02:03:11;;;;;;;0.10;0.10;;;;;;;17.35;52.84;98680.03;6303489;22;20023;-56
2021/09/02 02:05:37;;;;;;;0.20;0.20;;;;;;;17.40;52.78;98676.94;6276053;22;20026;-59
2021/09/02 02:08:03;;;;;;;0.20;0.20;;;;;;;17.40;52.49;98674.28;6276571;22;20090;-56
2021/09/02 02:10:33;;;;;;;0.10;0.10;;;;;;;17.36;52.52;98672.94;6303537;22;20092;-54
2021/09/02 02:13:01;;;;;;;0.20;0.20;;;;;;;17.44;52.45;98684.34;6303785;22;20034;-57
2021/09/02 02:15:30;;;;;;;0.10;0.10;;;;;;;17.46;52.37;98676.31;6276436;22;20019;-54
2021/09/02 02:17:58;;;;;;;0.10;0.10;;;;;;;17.49;52.23;98684.75;6302255;22;20574;-60
2021/09/02 02:20:24;;;;;;;0.20;0.20;;;;;;;17.49;52.31;98689.19;6272970;22;20026;-49
2021/09/02 02:22:51;;;;;;;0.20;0.20;;;;;;;17.52;52.59;98687.06;6303205;22;20045;-60
2021/09/02 02:25:17;;;;;;;0.10;0.10;;;;;;;17.30;52.41;98669.13;6304191;22;20043;-53
2021/09/02 02:27:47;;;;;;;0.28;0.28;;;;;;;17.44;52.46;98679.09;6276724;22;20362;-60
2021/09/02 02:30:21;;;;;;;0.20;0.20;;;;;;;17.45;52.38;98678.09;6304435;22;20383;-55
2021/09/02 02:32:48;;;;;;;0.30;0.30;;;;;;;17.43;52.55;98680.09;6303474;22;20019;-54
2021/09/02 02:35:15;;;;;;;0.20;0.20;;;;;;;17.41;52.38;98678.56;6276040;22;20110;-53
2021/09/02 02:37:50;;;;;;;0.20;0.20;;;;;;;17.43;52.47;98689.81;6303278;22;20410;-59
2021/09/02 02:40:17;;;;;;;0.20;0.20;;;;;;;17.43;52.59;98682.72;6250279;22;20015;-60
2021/09/02 02:42:43;;;;;;;0.10;0.10;;;;;;;17.42;52.62;98682.88;6303559;22;20019;-51
2021/09/02 02:45:09;;;;;;;0.20;0.20;;;;;;;17.44;52.69;98681.72;6302538;22;20011;-57
2021/09/02 02:47:35;;;;;;;0.10;0.10;;;;;;;17.40;52.95;98664.56;6303437;22;20077;-52
2021/09/02 02:50:02;;;;;;;0.10;0.10;;;;;;;17.45;52.72;98664.91;6277071;22;20022;-60
2021/09/02 02:52:55;;;;;;;0.10;0.10;;;;;;;17.51;52.63;98672.19;6303769;22;20478;-54
2021/09/02 02:55:34;;;;;;;0.20;0.20;;;;;;;17.57;52.38;98670.81;6303114;22;20019;-56
2021/09/02 02:58:00;;;;;;;0.20;0.20;;;;;;;17.57;52.19;98668.97;6303212;22;20026;-57
2021/09/02 03:00:26;;;;;;;0.20;0.20;;;;;;;17.61;52.15;98680.03;6303015;22;20110;-57
2021/09/02 03:02:52;;;;;;;0.20;0.20;;;;;;;17.62;52.16;98682.53;6275343;22;20030;-56
2021/09/02 03:05:18;;;;;;;0.20;0.20;;;;;;;17.64;51.84;98685.81;6302977;22;20022;-55
2021/09/02 03:07:43;;;;;;;0.20;0.20;;;;;;;17.66;52.01;98689.16;6302907;22;20155;-52
2021/09/02 03:10:09;;;;;;;0.43;0.43;;;;;;;17.67;52.08;98690.78;6302719;22;20026;-54
2021/09/02 03:12:36;;;;;;;0.20;0.20;;;;;;;17.65;51.92;98689.31;6275466;22;20019;-55
2021/09/02 03:15:02;;;;;;;0.20;0.20;;;;;;;17.58;52.04;98697.00;6302918;22;20080;-54
2021/09/02 03:17:29;;;;;;;0.20;0.20;;;;;;;17.58;52.26;98704.94;6303293;22;20023;-54
2021/09/02 03:19:55;;;;;;;1.80;0.35;;;;;;;17.53;52.21;98706.38;6275463;22;20462;-53
2021/09/02 03:22:21;;;;;;;0.20;0.20;;;;;;;17.47;52.37;98714.91;6303044;22;20011;-56
2021/09/02 03:24:47;;;;;;;0.13;0.13;;;;;;;17.36;52.66;98702.78;6303377;22;20023;-56
2021/09/02 03:27:13;;;;;;;0.20;0.20;;;;;;;17.36;52.95;98707.25;6252155;22;20154;-54
2021/09/02 03:29:39;;;;;;;0.20;0.20;;;;;;;17.37;53.24;98707.09;6304802;22;20037;-56
2021/09/02 03:32:05;;;;;;;0.20;0.20;;;;;;;17.31;53.34;98709.53;6277585;22;20011;-55
2021/09/02 03:34:31;;;;;;;0.20;0.20;;;;;;;17.29;53.52;98712.31;6304823;22;20586;-53
2021/09/02 03:36:57;;;;;;;0.20;0.20;;;;;;;17.26;53.70;98712.63;6304883;22;20026;-55
2021/09/02 03:39:24;;;;;;;0.20;0.20;;;;;;;17.23;53.78;98717.38;6304573;22;20073;-54
2021/09/02 03:41:50;;;;;;;0.20;0.20;;;;;;;17.14;53.93;98714.69;6304529;22;20336;-56
2021/09/02 03:44:16;;;;;;;0.10;0.10;;;;;;;17.13;53.90;98712.19;6304811;22;20022;-55
2021/09/02 03:46:42;;;;;;;0.20;0.20;;;;;;;17.14;53.89;98716.50;6304473;22;20014;-57
2021/09/02 03:49:08;;;;;;;0.15;0.15;;;;;;;17.25;54.16;98726.78;6304741;22;20037;-53
2021/09/02 03:51:34;;;;;;;0.20;0.20;;;;;;;17.31;53.59;98726.16;6304131;22;20462;-56
2021/09/02 03:54:00;;;;;;;0.30;0.30;;;;;;;17.33;54.08;98732.13;6277591;22;20094;-55
2021/09/02 03:56:25;;;;;;;0.20;0.20;;;;;;;17.38;53.73;98724.56;6304515;22;20346;-54
2021/09/02 03:58:52;;;;;;;0.20;0.20;;;;;;;17.44;53.58;98731.84;6304700;22;20213;-56
2021/09/02 04:01:18;;;;;;;0.28;0.28;;;;;;;17.50;53.75;98722.50;6303760;22;20011;-54
2021/09/02 04:03:44;;;;;;;0.28;0.28;;;;;;;17.52;53.37;98718.72;6276831;22;20028;-51
2021/09/02 04:06:10;;;;;;;0.20;0.20;;;;;;;17.60;53.45;98710.06;6277214;22;20068;-53
2021/09/02 04:08:36;;;;;;;0.20;0.20;;;;;;;17.73;53.03;98710.47;6251824;22;20400;-56
2021/09/02 04:11:02;;;;;;;0.20;0.20;;;;;;;17.92;53.13;98718.16;6304689;22;20354;-54
2021/09/02 04:13:28;;;;;;;0.20;0.20;;;;;;;17.94;52.84;98717.97;6304718;22;20015;-54
2021/09/02 04:15:54;;;;;;;0.20;0.20;;;;;;;17.92;52.97;98719.97;6304292;22;20050;-55
2021/09/02 04:18:20;;;;;;;0.10;0.10;;;;;;;17.91;53.06;98713.84;6277183;22;20019;-55
2021/09/02 04:20:46;;;;;;;0.20;0.20;;;;;;;17.91;53.14;98713.84;6304103;22;20015;-54
2021/09/02 04:23:12;;;;;;;0.10;0.10;;;;;;;17.91;53.19;98718.28;6304385;22;20019;-56
2021/09/02 04:25:38;;;;;;;0.17;0.17;;;;;;;17.96;52.69;98716.03;6303949;22;20019;-54
2021/09/02 04:28:04;;;;;;;0.20;0.20;;;;;;;18.02;52.73;98710.09;6303653;22;20019;-53
2021/09/02 04:30:30;;;;;;;0.22;0.22;;;;;;;18.11;52.23;98719.72;6304227;22;20019;-52
2021/09/02 04:32:56;;;;;;;0.20;0.20;;;;;;;18.25;51.71;98708.53;6304338;22;20019;-54
2021/09/02 04:35:22;;;;;;;0.30;0.30;;;;;;;18.40;50.77;98711.38;6304364;22;20015;-51
2021/09/02 04:37:48;;;;;;;0.20;0.20;;;;;;;18.53;50.05;98715.22;6303790;22;20027;-53
2021/09/02 04:40:15;;;;;;;0.20;0.20;;;;;;;18.68;49.52;98713.59;6304289;22;20019;-50
2021/09/02 04:42:41;;;;;;;0.20;0.20;;;;;;;18.81;48.89;98718.44;6276885;22;20050;-51
2021/09/02 04:45:07;;;;;;;0.20;0.20;;;;;;;18.86;48.23;98725.84;6304178;22;20076;-51
2021/09/02 04:47:34;;;;;;;0.32;0.32;;;;;;;18.72;47.97;98719.38;6304357;22;20019;-47
2021/09/02 04:49:59;;;;;;;0.20;0.20;;;;;;;18.71;47.42;98729.16;6304201;22;20062;-50
2021/09/02 04:52:25;;;;;;;0.20;0.20;;;;;;;18.73;48.06;98734.28;6304269;22;20022;-49
2021/09/02 04:54:51;;;;;;;0.20;0.20;;;;;;;18.81;47.71;98728.19;6304163;22;20366;-50
2021/09/02 04:57:19;;;;;;;0.22;0.22;;;;;;;18.78;47.82;98731.16;6276771;22;20023;-51
2021/09/02 04:59:46;;;;;;;0.22;0.22;;;;;;;18.53;48.05;98723.16;6303973;22;20019;-48
2021/09/02 05:02:12;;;;;;;0.20;0.20;;;;;;;18.53;48.24;98735.56;6303696;22;20097;-53
2021/09/02 05:04:38;;;;;;;0.20;0.20;;;;;;;18.49;48.46;98732.38;6250313;22;20015;-50
2021/09/02 05:07:04;;;;;;;0.10;0.10;;;;;;;18.44;48.24;98723.28;6277020;22;20022;-54
2021/09/02 05:09:29;;;;;;;0.20;0.20;;;;;;;18.39;48.21;98736.16;6304207;22;20026;-51
2021/09/02 05:11:56;;;;;;;0.20;0.20;;;;;;;18.31;48.14;98736.97;6307041;22;20178;-55
2021/09/02 05:14:22;;;;;;;0.20;0.20;;;;;;;18.20;48.17;98734.59;6305582;22;20015;-52
2021/09/02 05:16:48;;;;;;;0.60;0.60;;;;;;;18.13;48.54;98737.03;6276335;22;20112;-50
2021/09/02 05:19:15;;;;;;;0.20;0.20;;;;;;;18.01;48.41;98716.38;6276680;22;20023;-54
2021/09/02 05:21:41;;;;;;;0.20;0.20;;;;;;;17.97;48.64;98728.22;6298113;22;20108;-55
2021/09/02 05:24:07;;;;;;;0.20;0.20;;;;;;;17.99;48.44;98726.28;6303135;22;20616;-52
2021/09/02 05:26:33;;;;;;;0.20;0.20;;;;;;;18.03;48.44;98727.63;6303433;22;20417;-54
2021/09/02 05:28:59;;;;;;;0.20;0.20;;;;;;;18.03;48.22;98711.78;6302760;22;20015;-54
2021/09/02 05:31:26;;;;;;;0.20;0.20;;;;;;;18.22;47.90;98737.94;6275403;22;20541;-53
2021/09/02 05:33:53;;;;;;;0.20;0.20;;;;;;;18.22;48.06;98745.84;6302885;22;20098;-49
2021/09/02 05:36:19;;;;;;;0.20;0.20;;;;;;;18.16;47.73;98727.97;6301148;22;20019;-52
2021/09/02 05:38:45;;;;;;;0.20;0.20;;;;;;;18.19;47.51;98740.88;6302739;22;20470;-53
2021/09/02 05:41:12;;;;;;;0.20;0.20;;;;;;;18.15;47.54;98742.19;6302497;22;20015;-56
2021/09/02 05:43:38;;;;;;;0.20;0.20;;;;;;;18.15;47.72;98731.63;6302903;22;20498;-58
2021/09/02 05:46:04;;;;;;;0.30;0.30;;;;;;;18.19;47.52;98732.97;6302938;22;20015;-59
2021/09/02 05:48:33;;;;;;;0.20;0.20;;;;;;;18.30;47.54;98729.19;6302645;22;20454;-56
2021/09/02 05:50:59;;;;;;;0.20;0.20;;;;;;;18.38;47.20;98732.69;6274274;22;20163;-56
2021/09/02 05:53:24;;;;;;;0.20;0.20;;;;;;;18.52;47.14;98732.06;6302988;22;20019;-62
2021/09/02 05:55:51;;;;;;;0.20;0.20;;;;;;;18.49;47.28;98720.97;6302698;22;20037;-59
2021/09/02 05:58:20;;;;;;;0.20;0.20;;;;;;;18.58;47.06;98735.91;6302085;22;20051;-54
2021/09/02 06:00:47;;;;;;;0.20;0.20;;;;;;;18.62;46.77;98740.69;6302815;22;20057;-56
2021/09/02 06:03:13;;;;;;;0.20;0.20;;;;;;;18.62;46.93;98734.56;6301901;22;20026;-60
2021/09/02 06:05:39;;;;;;;0.20;0.20;;;;;;;18.61;46.74;98731.13;6298314;22;20369;-59
2021/09/02 06:08:05;;;;;;;0.20;0.20;;;;;;;18.67;46.70;98742.88;6301841;22;20011;-51
2021/09/02 06:10:34;;;;;;;0.20;0.20;;;;;;;18.70;46.47;98759.22;6302402;22;20582;-62
2021/09/02 06:13:00;;;;;;;0.20;0.20;;;;;;;18.70;46.02;98761.88;6301919;22;20015;-59
2021/09/02 06:15:26;;;;;;;0.20;0.20;;;;;;;18.65;46.17;98772.09;6274495;22;20030;-61
2021/09/02 06:17:52;;;;;;;0.20;0.20;;;;;;;18.66;46.35;98767.63;6302443;22;20019;-57
2021/09/02 06:20:18;;;;;;;0.20;0.20;;;;;;;18.67;46.36;98767.50;6302457;22;20089;-58
2021/09/02 06:22:44;;;;;;;0.20;0.20;;;;;;;18.76;45.75;98773.59;6302196;22;20096;-56
2021/09/02 06:25:10;;;;;;;0.20;0.20;;;;;;;18.69;45.44;98768.16;6302747;22;20096;-54
2021/09/02 06:27:37;;;;;;;0.28;0.28;;;;;;;18.65;45.66;98774.72;6275998;22;20034;-58
2021/09/02 06:30:04;;;;;;;0.20;0.20;;;;;;;18.72;45.49;98778.38;6303350;22;20509;-55
2021/09/02 06:32:31;;;;;;;0.20;0.20;;;;;;;18.76;45.44;98756.91;6302965;22;20022;-61
2021/09/02 06:34:57;;;;;;;0.20;0.20;;;;;;;19.00;45.01;98765.72;6299668;22;20011;-61
2021/09/02 06:37:23;;;;;;;0.20;0.20;;;;;;;19.32;44.36;98764.06;6299483;22;20019;-62
2021/09/02 06:39:49;;;;;;;0.20;0.20;;;;;;;19.51;44.17;98775.16;6298159;22;20520;-61
2021/09/02 06:42:15;;;;;;;0.20;0.20;;;;;;;19.57;43.86;98778.97;6298091;22;20017;-60
2021/09/02 06:44:41;;;;;;;0.20;0.20;;;;;;;19.52;43.94;98776.84;6245090;22;20038;-59
2021/09/02 06:47:07;;;;;;;0.20;0.20;;;;;;;19.52;44.25;98770.69;6297873;22;20438;-58
2021/09/02 06:49:33;;;;;;;0.20;0.20;;;;;;;19.46;44.48;98772.22;6297595;22;20072;-60
2021/09/02 06:52:00;;;;;;;0.20;0.20;;;;;;;19.32;44.74;98778.13;6299326;22;20022;-60
2021/09/02 06:54:26;;;;;;;0.52;0.52;;;;;;;19.27;44.80;98776.97;6300603;22;20073;-60
2021/09/02 06:56:52;;;;;;;0.28;0.28;;;;;;;19.37;45.05;98783.75;6301716;22;20443;-60
2021/09/02 06:59:19;;;;;;;0.20;0.20;;;;;;;19.55;44.53;98784.44;6301723;22;20019;-61
2021/09/02 07:01:47;;;;;;;0.20;0.20;;;;;;;19.71;43.89;98781.75;6272522;22;20022;-64
2021/09/02 07:04:14;;;;;;;0.20;0.20;;;;;;;19.67;43.54;98764.56;6273593;22;20019;-61
2021/09/02 07:06:40;;;;;;;0.20;0.20;;;;;;;19.84;43.44;98785.72;6302677;22;20026;-60
2021/09/02 07:09:06;;;;;;;0.20;0.20;;;;;;;19.86;43.41;98799.63;6303358;22;20019;-61
2021/09/02 07:11:32;;;;;;;0.20;0.20;;;;;;;19.82;43.26;98798.31;6301454;22;20019;-59
2021/09/02 07:13:58;;;;;;;0.20;0.20;;;;;;;19.66;43.53;98800.00;6302785;22;20026;-60
2021/09/02 07:16:24;;;;;;;0.20;0.20;;;;;;;19.52;43.87;98798.00;6302549;22;20057;-61
2021/09/02 07:18:50;;;;;;;0.30;0.30;;;;;;;19.71;48.66;98802.97;6275987;22;20019;-65
2021/09/02 07:21:19;;;;;;;0.30;0.30;;;;;;;20.03;48.65;98803.88;6302517;22;20012;-64
2021/09/02 07:23:45;;;;;;;0.20;0.20;;;;;;;20.42;47.92;98807.41;6302685;22;20049;-65
2021/09/02 07:26:10;;;;;;;0.20;0.20;;;;;;;20.71;47.40;98802.31;6303188;22;20011;-64
2021/09/02 07:28:36;;;;;;;0.20;0.20;;;;;;;20.72;46.33;98798.66;6303192;22;20545;-65
2021/09/02 07:31:02;;;;;;;0.35;0.35;;;;;;;20.88;46.00;98804.84;6302708;22;20019;-64
2021/09/02 07:33:28;;;;;;;0.20;0.20;;;;;;;21.03;46.94;98793.34;6303171;22;20034;-63
2021/09/02 07:35:54;;;;;;;0.20;0.20;;;;;;;20.86;44.36;98813.00;6302496;22;20027;-64
2021/09/02 07:38:20;;;;;;;0.20;0.20;;;;;;;21.03;44.14;98803.97;6303095;22;20493;-64
2021/09/02 07:40:46;;;;;;;0.20;0.20;;;;;;;21.37;46.78;98803.53;6301836;22;20582;-64
2021/09/02 07:43:12;;;;;;;0.20;0.20;;;;;;;21.86;46.00;98805.78;6275686;22;20022;-68
2021/09/02 07:45:39;;;;;;;0.20;0.20;;;;;;;22.30;45.65;98809.31;6303217;22;20350;-68
2021/09/02 07:48:05;;;;;;;0.20;0.20;;;;;;;22.50;44.47;98802.41;6303210;22;20019;-63
2021/09/02 07:50:32;;;;;;;0.20;0.20;;;;;;;22.73;43.80;98812.97;6276062;22;20098;-65
2021/09/02 07:52:59;;;;;;;0.20;0.20;;;;;;;22.85;42.86;98824.75;6275287;22;20065;-64
2021/09/02 07:55:25;;;;;;;0.20;0.20;;;;;;;22.95;42.57;98821.81;6301362;22;20042;-63
2021/09/02 07:57:52;;;;;;;0.20;0.20;;;;;;;22.96;41.09;98821.63;6302504;22;20019;-64
2021/09/02 08:00:18;;;;;;;0.20;0.20;;;;;;;22.93;42.15;98818.50;6302804;22;20042;-64
2021/09/02 08:02:44;;;;;;;0.35;0.35;;;;;;;22.91;42.36;98821.34;6301902;22;20030;-63
2021/09/02 08:05:11;;;;;;;0.20;0.20;;;;;;;22.87;42.53;98803.28;6302687;22;20018;-62
2021/09/02 08:08:03;;;;;;;0.20;0.20;;;;;;;22.88;42.56;98815.56;6302833;22;20097;-63
2021/09/02 08:10:29;;;;;;;0.20;0.20;;;;;;;23.00;42.50;98816.75;6297643;22;20019;-62
2021/09/02 08:12:55;;;;;;;0.20;0.20;;;;;;;23.08;42.45;98817.44;6304192;22;20046;-63
2021/09/02 08:15:22;;;;;;;0.20;0.20;;;;;;;23.04;42.40;98820.66;6304410;22;20091;-63
2021/09/02 08:17:48;;;;;;;0.20;0.20;;;;;;;23.04;42.64;98821.50;6304151;22;20451;-62
2021/09/02 08:20:14;;;;;;;0.40;0.40;;;;;;;22.95;42.64;98814.66;6277225;22;20536;-61
2021/09/02 08:22:40;;;;;;;0.20;0.20;;;;;;;22.89;42.43;98820.72;6277121;22;20026;-62
2021/09/02 08:25:07;;;;;;;0.20;0.20;;;;;;;22.99;42.45;98823.91;6304394;22;20022;-63
2021/09/02 08:27:33;;;;;;;0.20;0.20;;;;;;;23.05;41.96;98819.66;6304439;22;20512;-61
2021/09/02 08:30:00;;;;;;;1.15;1.15;;;;;;;23.08;41.89;98817.44;6304259;22;20512;-62
2021/09/02 08:32:26;;;;;;;0.20;0.20;;;;;;;23.11;42.26;98818.91;6303813;22;20461;-62
2021/09/02 08:34:52;;;;;;;0.20;0.20;;;;;;;23.07;42.13;98825.63;6304329;22;20015;-62
2021/09/02 08:37:18;;;;;;;0.20;0.20;;;;;;;22.98;42.00;98813.44;6304297;22;20335;-62
2021/09/02 08:39:44;;;;;;;0.20;0.20;;;;;;;23.14;42.08;98805.19;6276554;22;20401;-63
2021/09/02 08:42:10;;;;;;;0.20;0.20;;;;;;;23.26;41.31;98809.88;6304175;22;20011;-62
2021/09/02 08:44:36;;;;;;;0.20;0.20;;;;;;;23.52;41.11;98809.31;6251652;22;20015;-62
2021/09/02 08:47:02;;;;;;;0.30;0.30;;;;;;;23.78;41.33;98804.19;6303870;22;20022;-61
2021/09/02 08:49:28;;;;;;;0.20;0.20;;;;;;;24.07;40.31;98799.66;6277158;22;20358;-61
2021/09/02 08:51:55;;;;;;;0.20;0.20;;;;;;;24.22;39.98;98801.19;6303869;22;20020;-63
2021/09/02 08:54:21;;;;;;;0.20;0.20;;;;;;;24.21;39.19;98802.22;6304112;22;20011;-61
2021/09/02 08:56:47;;;;;;;0.20;0.20;;;;;;;24.01;39.51;98803.09;6276696;22;20030;-61
2021/09/02 08:59:13;;;;;;;0.30;0.30;;;;;;;23.98;39.64;98796.31;6276886;22;20090;-62
2021/09/02 09:01:39;;;;;;;0.20;0.20;;;;;;;24.01;39.65;98800.44;6303879;22;20027;-62
2021/09/02 09:04:11;;;;;;;0.20;0.20;;;;;;;23.77;39.77;98802.53;6303790;22;20364;-60
2021/09/02 09:06:37;;;;;;;0.20;0.20;;;;;;;23.59;39.67;98799.50;6301840;22;20080;-60
2021/09/02 09:09:10;;;;;;;0.20;0.20;;;;;;;23.38;40.24;98794.19;6302897;22;20065;-61
2021/09/02 09:11:36;;;;;;;0.20;0.20;;;;;;;23.28;40.50;98804.31;6277216;22;20435;-62
2021/09/02 09:14:14;;;;;;;0.20;0.20;;;;;;;23.25;40.93;98797.53;6250236;22;20175;-62
2021/09/02 09:16:44;;;;;;;0.10;0.10;;;;;;;23.27;41.19;98794.69;6276572;22;20023;-62
2021/09/02 09:19:10;;;;;;;0.20;0.20;;;;;;;23.20;40.97;98783.97;6303459;22;20027;-61
2021/09/02 09:21:36;;;;;;;0.30;0.30;;;;;;;23.25;40.38;98796.72;6275714;22;20015;-61
2021/09/02 09:24:04;;;;;;;0.30;0.30;;;;;;;23.18;40.55;98799.31;6275520;22;20068;-61
2021/09/02 09:26:31;;;;;;;0.20;0.20;;;;;;;23.28;40.48;98796.34;6275931;22;20011;-61
2021/09/02 09:29:31;;;;;;;0.20;0.20;;;;;;;23.36;40.52;98788.22;6303331;22;20647;-61
2021/09/02 09:31:57;;;;;;;0.20;0.20;;;;;;;23.42;40.64;98790.16;6270805;22;20436;-62
2021/09/02 09:34:23;;;;;;;0.20;0.20;;;;;;;23.36;39.86;98804.22;6250958;22;20015;-61
2021/09/02 09:36:49;;;;;;;0.20;0.20;;;;;;;23.08;40.07;98790.81;6249639;22;20469;-61
2021/09/02 09:39:17;;;;;;;0.85;0.85;;;;;;;23.05;40.51;98801.03;6303450;22;20019;-60
2021/09/02 09:41:47;;;;;;;0.20;0.20;;;;;;;22.99;40.68;98802.59;6303456;22;20094;-60
2021/09/02 09:44:24;;;;;;;0.20;0.20;;;;;;;22.79;40.62;98813.03;6303627;22;20470;-60
2021/09/02 09:47:10;;;;;;;0.10;0.10;;;;;;;22.58;40.96;98810.28;6303090;22;20021;-61
2021/09/02 09:49:45;;;;;;;0.20;0.20;;;;;;;22.47;41.24;98816.09;6303591;22;20011;-60
2021/09/02 09:52:21;;;;;;;0.10;0.10;;;;;;;22.42;41.82;98825.63;6303052;22;20038;-63
2021/09/02 09:54:47;;;;;;;0.17;0.17;;;;;;;22.41;42.07;98822.16;6302981;22;20021;-64
2021/09/02 09:57:13;;;;;;;0.10;0.10;;;;;;;22.46;42.12;98817.09;6276064;22;20039;-63
2021/09/02 09:59:40;;;;;;;0.20;0.20;;;;;;;22.36;42.07;98803.25;6301696;22;20015;-64
2021/09/02 10:02:06;;;;;;;0.20;0.20;;;;;;;22.46;42.07;98822.41;6302663;22;20035;-64
2021/09/02 10:04:33;;;;;;;0.10;0.10;;;;;;;22.48;42.10;98825.69;6303249;22;20019;-63
2021/09/02 10:06:59;;;;;;;0.17;0.17;;;;;;;22.56;42.26;98808.81;6301416;22;20470;-65
2021/09/02 10:09:25;;;;;;;0.20;0.20;;;;;;;22.63;42.07;98812.41;6274787;22;20026;-62
2021/09/02 10:11:51;;;;;;;0.20;0.20;;;;;;;22.63;41.85;98818.53;6274746;22;20478;-59
2021/09/02 10:14:16;;;;;;;0.20;0.20;;;;;;;22.67;41.97;98824.34;6303532;22;20019;-58
2021/09/02 10:16:42;;;;;;;0.20;0.20;;;;;;;22.73;41.81;98818.28;6303226;22;20098;-57
2021/09/02 10:19:08;;;;;;;0.10;0.10;;;;;;;22.78;41.83;98816.69;6250439;22;20019;-60
2021/09/02 10:21:34;;;;;;;0.10;0.10;;;;;;;22.86;42.16;98817.59;6250545;22;20043;-59
2021/09/02 10:24:47;;;;;;;0.20;0.20;;;;;;;22.90;41.85;98826.88;6301954;22;20019;-59
2021/09/02 10:27:22;;;;;;;0.20;0.20;;;;;;;22.99;41.80;98836.41;6298917;22;20027;-58
2021/09/02 10:29:48;;;;;;;0.20;0.20;;;;;;;23.07;41.79;98825.63;6303146;22;20082;-60
2021/09/02 10:32:23;;;;;;;0.20;0.20;;;;;;;23.25;41.50;98831.34;6276137;22;20093;-60
2021/09/02 10:35:09;;;;;;;0.30;0.30;;;;;;;23.17;41.03;98820.81;6302686;22;20018;-59
2021/09/02 10:37:36;;;;;;;0.20;0.20;;;;;;;23.25;40.92;98826.84;6303135;22;20109;-59
2021/09/02 10:40:29;;;;;;;0.20;0.20;;;;;;;23.41;40.92;98823.13;6302966;22;20015;-58
2021/09/02 10:42:56;;;;;;;0.25;0.25;;;;;;;23.56;40.36;98817.75;6301398;22;20022;-60
2021/09/02 10:45:25;;;;;;;0.20;0.20;;;;;;;23.70;40.51;98825.63;6303139;22;20405;-60
2021/09/02 10:47:54;;;;;;;0.20;0.20;;;;;;;23.60;40.26;98821.66;6301371;22;20015;-61
2021/09/02 10:50:23;;;;;;;0.20;0.20;;;;;;;23.59;40.38;98831.47;6303150;22;20819;-60
2021/09/02 10:52:49;;;;;;;0.20;0.20;;;;;;;23.53;40.53;98836.75;6275825;22;20366;-60
2021/09/02 10:55:41;;;;;;;0.10;0.10;;;;;;;23.51;41.03;98834.28;6276424;22;20600;-60
2021/09/02 10:58:09;;;;;;;0.20;0.20;;;;;;;23.50;40.94;98837.97;6302726;22;20023;-61
2021/09/02 11:00:39;;;;;;;0.20;0.20;;;;;;;23.43;40.94;98830.94;6303211;22;20026;-60
2021/09/02 11:03:17;;;;;;;0.20;0.20;;;;;;;23.43;40.77;98826.41;6302534;22;20133;-59
2021/09/02 11:05:44;;;;;;;0.10;0.10;;;;;;;23.32;40.92;98829.56;6275616;22;20019;-60
2021/09/02 11:08:10;;;;;;;0.20;0.20;;;;;;;23.29;41.06;98819.31;6302614;22;20043;-60
2021/09/02 11:10:36;;;;;;;0.38;0.38;;;;;;;23.30;40.65;98828.91;6303069;22;20034;-59
2021/09/02 11:13:07;;;;;;;0.20;0.20;;;;;;;23.41;40.61;98832.94;6304870;22;20019;-58
2021/09/02 11:15:37;;;;;;;0.10;0.10;;;;;;;23.51;40.57;98836.13;6303359;22;20015;-59
2021/09/02 11:18:04;;;;;;;0.10;0.10;;;;;;;23.64;40.16;98839.72;6275479;22;20026;-59
2021/09/02 11:20:32;;;;;;;0.20;0.20;;;;;;;23.69;39.82;98847.97;6301611;22;20473;-59
2021/09/02 11:23:09;;;;;;;0.10;0.10;;;;;;;23.68;39.29;98840.19;6302819;22;20019;-59
2021/09/02 11:25:51;;;;;;;0.10;0.10;;;;;;;23.66;39.25;98829.69;6276700;22;20102;-59
2021/09/02 11:28:20;;;;;;;0.10;0.10;;;;;;;23.69;39.17;98839.97;6302985;22;20019;-60
2021/09/02 11:30:47;;;;;;;0.10;0.10;;;;;;;23.70;38.97;98833.63;6303036;22;20022;-59
2021/09/02 11:33:15;;;;;;;0.20;0.20;;;;;;;23.74;38.64;98842.91;6275819;22;20581;-59
2021/09/02 11:35:41;;;;;;;0.20;0.20;;;;;;;23.79;38.37;98835.13;6303891;22;20472;-53